Terminal Aerodrome Forecast
Issued by NWS

Current Version | Previous Version | Text Only | Print | Product List | Glossary Off
Versions: 1 2 3 4 5 6 7 8 9 10 11 12 13 14 15

867
FTUS41 KILN 172203 AAB
TAFLCK
TAF AMD
KLCK 172203Z 1722/1818 22009KT P6SM SCT050 OVC100
      TEMPO 1722/1723 5SM -SHRA BKN050 OVC100
     FM180200 21007KT P6SM SCT010 SCT120
     FM180800 23007KT 4SM BR SCT008
     FM181300 26010KT P6SM BKN020
     FM181700 27012G20KT P6SM BKN040=

USA.gov is the U.S. government's official web portal to all federal, state and local government web resources and services.